Flight Number: EUR1154 Duration: 1:00
Departure: Budapest Ferihegy (LHBP) at 08:15 Distance: 343 Nm
Arrival: Skopje Airport (LWSK) at 09:15 Equipment: A321

Weather Information
Budapest / Ferihegy, Hungary (LHBP) 47-26N 019-16E 185M Feb 19, 2018 - 02:30 AM EST / 2018.02.19 0730 UTC
Wind: Variable at 3 MPH (3 KT):0
Visibility: greater than 7 mile(s):0 Temperature: 30 F (-1 C) Dew Point: 21 F (-6 C) Relative Humidity: 68% Pressure (altimeter): 30.27 in. Hg (1025 hPa)
ob: LHBP 190730Z VRB03KT CAVOK M01/M06 Q1025 NOSIG cycle: 7
Sunrise: 05:44 Sunset: 16:09 (UTC)

Skopje-Petrovec, Macedonia, The Republic of (LWSK) 41-58N 021-39E 239M Feb 19, 2018 - 02:30 AM EST / 2018.02.19 0730 UTC
Wind: from the NE (040 degrees) at 8 MPH (7 KT):0
Visibility: greater than 7 mile(s):0
Sky conditions: overcast Weather: drizzle Temperature: 37 F (3 C) Dew Point: 33 F (1 C) Relative Humidity: 86% Pressure (altimeter): 30.09 in. Hg (1019 hPa)
ob: LWSK 190730Z 04007KT 9999 DZ BKN015 OVC033 03/01 Q1019 NOSIG cycle: 7
Sunrise: 05:26 Sunset: 16:08 (UTC)

TAF:2018/02/19 06:42 TAF LWSK 190530Z 1906/2006 03006KT 9999 SCT020 BKN040 TEMPO 1906/2004 RA SCT015 OVC033

Previous Pireps for this route
Date Aircraft Flight time Fuel used Landing rate On time
2012-09-09A32101.34-9115-1105No
2012-09-28A32101.1610170-273Yes
2012-10-26A32101.4910150-574Charter
2013-02-09A32101.2411588-164Yes
2013-08-19A3211.0080000No
2013-09-30A32101.3511762-273No
2014-05-12A32101.168038-238Yes
2014-11-15A3211.1377700Yes
2014-11-15A3211.1377700No
2015-04-02A32101.107459-425No
2016-05-21A3211,0060000Yes
2016-12-27A3211.1189460No
(pireps marked green are flown by you)

Route map